^^
Datos históricos de la estación: Murcia-Puente Tocinos
Diario Informe para Junio 22, 2019 Unidades:  Métrico    Ingés   Ambas
Diario Semanal Mensual Anual
  Máxima: Mínima: Promedio:
Temperatura: 32.7 °C 24.7 °C 28.6 °C
Punto de rocio: 19.7 °C 11.2 °C 16.9 °C
Humedad: 66.6% 27.6% 51%
Velocidad viento: 22.5km/h 0km/h 10.7km/h
Racha viento: 40.7km/h - -
Viento- - ESE
Presión: 1019.2 hPa 1016.3 hPa -
Precipitación: 0.0 mm    
 
 
Tabla de datos para Junio 22, 2019
Hora Temperatura Punto de rocio Presión Viento Velocidad viento Racha viento Humedad Intensidad lluvia(por hora) Nubes
00:04 26.6 °C 19.7 °C 1019.2 hPa NE 9.5 km/h 16.1 km/h 65.8% 0.0 mm
00:09 26.5 °C 19.6 °C 1019.1 hPa NE 9.3 km/h 16.7 km/h 65.7% 0.0 mm
00:14 26.4 °C 19.6 °C 1019.1 hPa NE 8.7 km/h 16.1 km/h 66% 0.0 mm
00:19 26.4 °C 19.5 °C 1019.1 hPa NE 8.2 km/h 13 km/h 65.9% 0.0 mm
00:24 26.3 °C 19.5 °C 1019.1 hPa NNE 6.9 km/h 12.9 km/h 66% 0.0 mm
00:29 26.3 °C 19.4 °C 1019.1 hPa North 6.1 km/h 9.7 km/h 66% 0.0 mm
00:34 26.3 °C 19.4 °C 1019.1 hPa NNE 3.9 km/h 8.4 km/h 66% 0.0 mm
00:39 26.3 °C 19.4 °C 1019.0 hPa NE 3.7 km/h 8 km/h 66% 0.0 mm
00:44 26.3 °C 19.4 °C 1019.0 hPa North 3.2 km/h 8 km/h 66% 0.0 mm
00:49 26.3 °C 19.4 °C 1019.2 hPa North 3.1 km/h 8 km/h 66% 0.0 mm
00:54 26.3 °C 19.4 °C 1019.2 hPa North 2.9 km/h 6.4 km/h 66% 0.0 mm
00:59 26.3 °C 19.4 °C 1019.2 hPa NO 2.9 km/h 6.4 km/h 66% 0.0 mm
01:04 26.2 °C 19.4 °C 1019.2 hPa NO 2.9 km/h 5.6 km/h 66% 0.0 mm
01:09 26.2 °C 19.3 °C 1019.0 hPa NO 2.9 km/h 5.6 km/h 66% 0.0 mm
01:14 26.2 °C 19.3 °C 1019.0 hPa NO 2.9 km/h 7.4 km/h 65.9% 0.0 mm
01:19 26.2 °C 19.1 °C 1019.0 hPa NO 3.2 km/h 8 km/h 65% 0.0 mm
01:24 26.2 °C 19.1 °C 1018.9 hPa NO 3.9 km/h 8 km/h 65% 0.0 mm
01:29 26.2 °C 19.1 °C 1018.9 hPa NO 3.4 km/h 6.4 km/h 65% 0.0 mm
01:34 26.2 °C 19.1 °C 1018.9 hPa NO 2.2 km/h 4.7 km/h 65% 0.0 mm
01:39 26.2 °C 19.1 °C 1018.7 hPa NO 1.6 km/h 4.8 km/h 65% 0.0 mm
01:44 26.2 °C 19.1 °C 1018.7 hPa Calm   3.2 km/h 65% 0.0 mm
01:49 26.2 °C 19.1 °C 1018.8 hPa Calm   5.6 km/h 65% 0.0 mm
01:54 26.2 °C 19.1 °C 1018.8 hPa Calm   5.8 km/h 65% 0.0 mm
01:59 26.2 °C 19.1 °C 1018.8 hPa NNO 1.2 km/h 8.4 km/h 65% 0.0 mm
02:04 26.2 °C 18.9 °C 1018.8 hPa ONO 3.9 km/h 8 km/h 64.4% 0.0 mm
02:09 26.1 °C 18.8 °C 1018.6 hPa ONO 3.9 km/h 8 km/h 64% 0.0 mm
02:14 26.1 °C 18.8 °C 1018.6 hPa ONO 3.9 km/h 8 km/h 64% 0.0 mm
02:19 26.1 °C 18.8 °C 1018.6 hPa ONO 3.4 km/h 7.6 km/h 64% 0.0 mm
02:24 26.2 °C 18.8 °C 1018.5 hPa OSO 2.2 km/h 8 km/h 64% 0.0 mm
02:29 26.2 °C 18.8 °C 1018.5 hPa OSO 2.7 km/h 8 km/h 64% 0.0 mm
02:34 26.2 °C 18.7 °C 1018.5 hPa OSO 3.9 km/h 8 km/h 63.5% 0.0 mm
02:39 26.2 °C 18.6 °C 1018.5 hPa Oeste 3.6 km/h 7.4 km/h 63% 0.0 mm
02:44 26.3 °C 18.7 °C 1018.5 hPa OSO 2.9 km/h 8 km/h 63% 0.0 mm
02:49 26.3 °C 18.5 °C 1018.5 hPa OSO 3 km/h 8 km/h 62.2% 0.0 mm
02:54 26.4 °C 18.6 °C 1018.3 hPa OSO 3.2 km/h 8 km/h 62% 0.0 mm
02:59 26.4 °C 18.4 °C 1018.3 hPa OSO 3.1 km/h 6.4 km/h 61.4% 0.0 mm
03:04 26.5 °C 18.4 °C 1018.3 hPa OSO 2.9 km/h 4.8 km/h 61% 0.0 mm
03:09 26.5 °C 18.5 °C 1018.1 hPa OSO 2.1 km/h   61.3% 0.0 mm
03:14 26.6 °C 18.7 °C 1018.1 hPa Calm     62% 0.0 mm
03:19 26.6 °C 18.7 °C 1018.2 hPa Calm     62% 0.0 mm
03:24 26.4 °C 18.6 °C 1018.2 hPa Calm   9.5 km/h 62% 0.0 mm
03:29 26.4 °C 18.8 °C 1018.2 hPa SSO 1.2 km/h 11.1 km/h 62.9% 0.0 mm
03:34 26.3 °C 18.8 °C 1018.2 hPa Sur 4.7 km/h 11.3 km/h 63.5% 0.0 mm
03:39 26.2 °C 19 °C 1018.0 hPa SSO 5.2 km/h 11.1 km/h 64.3% 0.0 mm
03:44 26.2 °C 19.1 °C 1018.0 hPa Sur 6.5 km/h 12.2 km/h 65% 0.0 mm
03:49 26.1 °C 19.1 °C 1018.2 hPa Sur 7 km/h 13 km/h 65.7% 0.0 mm
03:54 26 °C 19.2 °C 1018.2 hPa SSO 8.4 km/h 12.9 km/h 66% 0.0 mm
03:59 26.1 °C 19.2 °C 1018.2 hPa SO 7.7 km/h 11.1 km/h 66% 0.0 mm
04:04 26.1 °C 19.2 °C 1018.2 hPa SO 6.5 km/h 11.3 km/h 66% 0.0 mm
04:09 26.1 °C 19.2 °C 1018.1 hPa SO 6.6 km/h 11.1 km/h 66% 0.0 mm
04:14 26.1 °C 19.2 °C 1018.1 hPa SSO 6.9 km/h 11.3 km/h 66% 0.0 mm
04:19 26.1 °C 19.2 °C 1018.1 hPa SSO 6.8 km/h 11.9 km/h 66% 0.0 mm
04:24 26 °C 19.1 °C 1018.0 hPa SSO 6.5 km/h 11.3 km/h 66% 0.0 mm
04:29 25.9 °C 19.1 °C 1018.0 hPa SSO 6.8 km/h 11.3 km/h 66% 0.0 mm
04:34 25.9 °C 19 °C 1018.0 hPa Sur 7.6 km/h 11.3 km/h 66% 0.0 mm
04:39 25.8 °C 19 °C 1018.0 hPa SSO 6.8 km/h 9.7 km/h 66% 0.0 mm
04:44 25.8 °C 18.9 °C 1018.0 hPa SSO 4.7 km/h 8 km/h 66% 0.0 mm
04:49 25.8 °C 18.9 °C 1018.0 hPa SSO 5 km/h 9.3 km/h 66% 0.0 mm
04:54 25.7 °C 18.9 °C 1017.9 hPa SSO 5.8 km/h 9.7 km/h 66.1% 0.0 mm
04:59 25.7 °C 18.9 °C 1017.9 hPa SSO 5.8 km/h 10 km/h 66.5% 0.0 mm
05:04 25.6 °C 18.9 °C 1017.9 hPa SSO 5.8 km/h 9.7 km/h 66.6% 0.0 mm
05:09 25.6 °C 18.9 °C 1017.8 hPa Sur 5.6 km/h 10 km/h 66.6% 0.0 mm
05:14 25.5 °C 18.7 °C 1017.8 hPa Sur 5 km/h 9.7 km/h 66% 0.0 mm
05:19 25.5 °C 18.7 °C 1017.8 hPa Sur 5.2 km/h 9.7 km/h 66% 0.0 mm
05:24 25.4 °C 18.6 °C 1017.7 hPa SSO 5.8 km/h 9.7 km/h 66% 0.0 mm
05:29 25.4 °C 18.6 °C 1017.7 hPa SSO 6 km/h 10 km/h 66% 0.0 mm
05:34 25.4 °C 18.6 °C 1017.7 hPa SSO 6.5 km/h 9.7 km/h 66% 0.0 mm
05:39 25.3 °C 18.5 °C 1017.7 hPa Sur 6.3 km/h 9.7 km/h 66% 0.0 mm
05:44 25.3 °C 18.5 °C 1017.7 hPa Sur 5.8 km/h 11.1 km/h 66% 0.0 mm
05:49 25.2 °C 18.4 °C 1017.7 hPa SSO 5.8 km/h 11.3 km/h 66% 0.0 mm
05:54 25.2 °C 18.4 °C 1017.7 hPa SSO 5.8 km/h 9.7 km/h 65.9% 0.0 mm
05:59 25.1 °C 18.1 °C 1017.7 hPa SO 6 km/h 9.7 km/h 65.1% 0.0 mm
06:04 25.1 °C 18.1 °C 1017.7 hPa SO 6.5 km/h 9.7 km/h 65% 0.0 mm
06:09 25.1 °C 18.1 °C 1017.7 hPa SO 6 km/h 8 km/h 65% 0.0 mm
06:14 25.1 °C 18.1 °C 1017.7 hPa SO 4.7 km/h 8 km/h 65% 0.0 mm
06:19 25.1 °C 18.1 °C 1017.7 hPa SSO 4.4 km/h 8 km/h 65% 0.0 mm
06:24 25 °C 18 °C 1017.7 hPa Sur 3.9 km/h 10 km/h 65% 0.0 mm
06:29 25 °C 17.9 °C 1017.7 hPa Sur 4.4 km/h 11.1 km/h 65% 0.0 mm
06:34 24.9 °C 17.7 °C 1017.9 hPa Sur 5.8 km/h 13 km/h 64.5% 0.0 mm
06:39 24.8 °C 17.5 °C 1017.9 hPa SSO 6.3 km/h 12.9 km/h 64% 0.0 mm
06:44 24.8 °C 17.5 °C 1017.9 hPa SSO 7.6 km/h 13 km/h 64% 0.0 mm
06:49 24.8 °C 17.5 °C 1017.9 hPa Sur 7.2 km/h 12.9 km/h 64% 0.0 mm
06:54 24.7 °C 17.4 °C 1017.9 hPa SO 6.5 km/h 11.1 km/h 64% 0.0 mm
06:59 24.7 °C 17.4 °C 1017.9 hPa SO 6 km/h 11.3 km/h 64% 0.0 mm
07:04 24.7 °C 17.4 °C 1018.0 hPa SO 5 km/h 8 km/h 64% 0.0 mm
07:09 24.7 °C 17.4 °C 1018.0 hPa SSO 5 km/h 9.5 km/h 64% 0.0 mm
07:14 24.7 °C 17.5 °C 1018.0 hPa SSO 5 km/h 10 km/h 64% 0.0 mm
07:19 24.8 °C 17.5 °C 1018.1 hPa SSO 5.5 km/h 11.1 km/h 64% 0.0 mm
07:24 24.8 °C 17.5 °C 1018.1 hPa SSO 6.9 km/h 14 km/h 64% 0.0 mm
07:29 24.8 °C 17.5 °C 1018.1 hPa SSO 7.4 km/h 14.8 km/h 64% 0.0 mm
07:34 24.7 °C 17.5 °C 1018.2 hPa SSO 8.4 km/h 14.8 km/h 64% 0.0 mm
07:39 24.7 °C 17.6 °C 1018.2 hPa SSO 8.4 km/h 14.5 km/h 64.5% 0.0 mm
07:44 24.7 °C 17.5 °C 1018.2 hPa SSO 8.4 km/h 12.9 km/h 64.3% 0.0 mm
07:49 24.7 °C 17.6 °C 1018.3 hPa SSO 8.1 km/h 11.3 km/h 64.7% 0.0 mm
07:54 24.7 °C 17.6 °C 1018.3 hPa SSO 7.6 km/h 11.3 km/h 64.7% 0.0 mm
07:59 24.8 °C 17.5 °C 1018.3 hPa SO 7.2 km/h 10 km/h 64% 0.0 mm
08:04 24.8 °C 17.5 °C 1018.4 hPa SO 6.5 km/h 9.7 km/h 63.9% 0.0 mm
08:09 24.8 °C 17.4 °C 1018.4 hPa SSO 6 km/h 8.4 km/h 63% 0.0 mm
08:14 25 °C 17.5 °C 1018.4 hPa SSO 5 km/h 8.4 km/h 63% 0.0 mm
08:19 25.2 °C 17.6 °C 1018.6 hPa Sur 5 km/h 10 km/h 63% 0.0 mm
08:24 25.2 °C 17.6 °C 1018.6 hPa Sur 5 km/h 9.7 km/h 62.6% 0.0 mm
08:29 25.3 °C 17.5 °C 1018.6 hPa Sur 5 km/h 8.7 km/h 62% 0.0 mm
08:34 25.3 °C 17.4 °C 1018.7 hPa SSO 5 km/h 9.7 km/h 61.5% 0.0 mm
08:39 25.4 °C 17.4 °C 1018.7 hPa Sur 5 km/h 9.7 km/h 61.1% 0.0 mm
08:44 25.5 °C 17.4 °C 1018.7 hPa Sur 5 km/h 8 km/h 61% 0.0 mm
08:49 25.7 °C 17.4 °C 1018.8 hPa Sur 4.9 km/h 8 km/h 60.5% 0.0 mm
08:54 25.8 °C 17.4 °C 1018.8 hPa Oeste 4.7 km/h 8 km/h 59.7% 0.0 mm
08:59 26 °C 17.4 °C 1018.8 hPa OSO 4.1 km/h 7.4 km/h 59% 0.0 mm
09:04 26.2 °C 17.3 °C 1018.9 hPa SO 2.9 km/h 8 km/h 58.1% 0.0 mm
09:09 26.3 °C 17.1 °C 1018.9 hPa ONO 3.2 km/h 8.4 km/h 57% 0.0 mm
09:14 26.3 °C 17 °C 1018.9 hPa Oeste 3.9 km/h 8 km/h 56.6% 0.0 mm
09:19 26.5 °C 17 °C 1018.9 hPa NO 3.9 km/h 8 km/h 55.8% 0.0 mm
09:24 26.7 °C 16.9 °C 1018.8 hPa NO 3.9 km/h 8 km/h 55% 0.0 mm
09:29 26.9 °C 16.9 °C 1018.8 hPa Oeste 3.9 km/h 8 km/h 54.3% 0.0 mm
09:34 27.2 °C 16.9 °C 1018.9 hPa Oeste 3.9 km/h 8 km/h 53.6% 0.0 mm
09:39 27.2 °C 16.9 °C 1018.9 hPa ONO 4.1 km/h 8 km/h 53.2% 0.0 mm
09:44 27.4 °C 17 °C 1018.9 hPa NNO 4.7 km/h 8 km/h 53% 0.0 mm
09:49 27.7 °C 17.3 °C 1018.9 hPa NE 4.4 km/h 8 km/h 53% 0.0 mm
09:54 28 °C 17.4 °C 1018.9 hPa NNE 3.9 km/h 11.1 km/h 52.4% 0.0 mm
09:59 28.2 °C 17.5 °C 1018.9 hPa NE 4.3 km/h 13 km/h 52.5% 0.0 mm
10:04 28.2 °C 17.7 °C 1018.9 hPa NE 5.8 km/h 18.5 km/h 53% 0.0 mm
10:09 28 °C 17.7 °C 1018.9 hPa NNE 7 km/h 22.2 km/h 53.5% 0.0 mm
10:14 28 °C 17.8 °C 1018.9 hPa NNE 10.3 km/h 22.5 km/h 54% 0.0 mm
10:19 28.1 °C 17.9 °C 1018.9 hPa NNE 10.2 km/h 19.3 km/h 54% 0.0 mm
10:24 28.2 °C 17.9 °C 1018.8 hPa NNE 9.5 km/h 16.1 km/h 53.7% 0.0 mm
10:29 28.3 °C 17.8 °C 1018.8 hPa NE 9.6 km/h 18.3 km/h 52.8% 0.0 mm
10:34 28.4 °C 17.7 °C 1018.9 hPa NNE 10 km/h 19.3 km/h 52.2% 0.0 mm
10:39 28.6 °C 17.7 °C 1018.9 hPa NNE 10.1 km/h 24.1 km/h 51.7% 0.0 mm
10:44 28.6 °C 17.9 °C 1018.9 hPa NNE 10.3 km/h 24.1 km/h 52.4% 0.0 mm
10:49 28.7 °C 17.8 °C 1018.9 hPa NE 11.1 km/h 28.2 km/h 51.7% 0.0 mm
10:54 28.8 °C 17.9 °C 1018.8 hPa NE 13 km/h 27.4 km/h 51.8% 0.0 mm
10:59 28.9 °C 17.8 °C 1018.8 hPa NE 13.6 km/h 25.9 km/h 51.4% 0.0 mm
11:04 29 °C 17.9 °C 1018.9 hPa NE 14.8 km/h 25.7 km/h 51.2% 0.0 mm
11:09 29.3 °C 17.8 °C 1018.9 hPa NNE 14.1 km/h 24.1 km/h 50% 0.0 mm
11:14 29.4 °C 17.5 °C 1018.9 hPa NNE 12.2 km/h 27 km/h 48.9% 0.0 mm
11:19 29.6 °C 17.4 °C 1018.9 hPa NE 13.3 km/h 27.8 km/h 47.8% 0.0 mm
11:24 29.7 °C 17.1 °C 1018.9 hPa NE 16.1 km/h 27.4 km/h 46.8% 0.0 mm
11:29 29.8 °C 15.6 °C 1018.9 hPa NNE 16.2 km/h 29.6 km/h 42.3% 0.0 mm
11:34 30 °C 15.1 °C 1018.9 hPa NE 16.4 km/h 29 km/h 40.4% 0.0 mm
11:39 30.2 °C 14.7 °C 1018.9 hPa NE 17.1 km/h 33.5 km/h 39% 0.0 mm
11:44 30.4 °C 14.7 °C 1018.9 hPa NNE 19 km/h 33.8 km/h 38.3% 0.0 mm
11:49 30.8 °C 13.8 °C 1018.9 hPa NE 18.2 km/h 28.2 km/h 35.6% 0.0 mm
11:54 31.1 °C 13.9 °C 1018.9 hPa NE 16.1 km/h 31.5 km/h 35.1% 0.0 mm
11:59 31.1 °C 13.4 °C 1018.9 hPa NE 16.2 km/h 32.2 km/h 34.2% 0.0 mm
12:04 31.1 °C 13.6 °C 1018.9 hPa NE 16.4 km/h 29 km/h 34.6% 0.0 mm
12:09 31.2 °C 13 °C 1018.8 hPa NE 16.3 km/h 33.3 km/h 33% 0.0 mm
12:14 31.2 °C 12.8 °C 1018.8 hPa NE 16.1 km/h 33.8 km/h 32.6% 0.0 mm
12:19 31.2 °C 13.3 °C 1018.8 hPa NE 16.4 km/h 32.2 km/h 33.6% 0.0 mm
12:24 31.2 °C 13.1 °C 1018.8 hPa NE 17.2 km/h 27.4 km/h 33.2% 0.0 mm
12:29 31.4 °C 13.5 °C 1018.8 hPa NE 17.2 km/h 26.2 km/h 33.7% 0.0 mm
12:34 31.4 °C 13.1 °C 1018.8 hPa NE 17.2 km/h 25.9 km/h 32.7% 0.0 mm
12:39 31.7 °C 13 °C 1018.6 hPa NE 16.7 km/h 27 km/h 32% 0.0 mm
12:44 31.7 °C 12.9 °C 1018.6 hPa NE 15.6 km/h 27.8 km/h 31.8% 0.0 mm
12:49 31.9 °C 12.3 °C 1018.6 hPa NE 15.8 km/h 30.6 km/h 30.3% 0.0 mm
12:54 31.8 °C 11.9 °C 1018.5 hPa NE 16.4 km/h 34.3 km/h 29.6% 0.0 mm
12:59 31.9 °C 11.2 °C 1018.5 hPa NE 17 km/h 35.2 km/h 28.3% 0.0 mm
13:04 32.1 °C 11.4 °C 1018.6 hPa ENE 18.4 km/h 35.4 km/h 28.2% 0.0 mm
13:09 32.2 °C 11.2 °C 1018.6 hPa NE 17.8 km/h 29 km/h 27.6% 0.0 mm
13:14 32.3 °C 12 °C 1018.6 hPa NE 16.4 km/h 30.6 km/h 29% 0.0 mm
13:19 32.1 °C 12.2 °C 1018.6 hPa ENE 16.9 km/h 30.6 km/h 29.7% 0.0 mm
13:24 32.3 °C 13.1 °C 1018.6 hPa ENE 18 km/h 29.6 km/h 31.2% 0.0 mm
13:29 32.3 °C 13.1 °C 1018.6 hPa NE 17.6 km/h 29 km/h 31.1% 0.0 mm
13:34 32.2 °C 13.2 °C 1018.6 hPa NE 16.1 km/h 30.6 km/h 31.6% 0.0 mm
13:39 32.1 °C 13.9 °C 1018.6 hPa NE 16.4 km/h 30.6 km/h 33.2% 0.0 mm
13:44 32.1 °C 13.8 °C 1018.6 hPa ENE 17.2 km/h 31.5 km/h 33.1% 0.0 mm
13:49 32.1 °C 13.5 °C 1018.6 hPa NE 16.9 km/h 32.2 km/h 32.4% 0.0 mm
13:54 31.9 °C 13.5 °C 1018.5 hPa NE 16.1 km/h 29 km/h 32.8% 0.0 mm
13:59 32.1 °C 14.5 °C 1018.5 hPa NE 16.5 km/h 31.5 km/h 34.6% 0.0 mm
14:04 32 °C 14.7 °C 1018.5 hPa NE 17.2 km/h 34.3 km/h 35.2% 0.0 mm
14:09 31.9 °C 14.9 °C 1018.4 hPa NE 17.6 km/h 33.8 km/h 35.8% 0.0 mm
14:14 31.9 °C 15.2 °C 1018.4 hPa NE 19 km/h 31.5 km/h 36.4% 0.0 mm
14:19 31.8 °C 14.9 °C 1018.4 hPa NE 18.8 km/h 32.2 km/h 36% 0.0 mm
14:24 31.9 °C 15.4 °C 1018.3 hPa NE 18.4 km/h 29.6 km/h 37% 0.0 mm
14:29 32 °C 15.2 °C 1018.3 hPa NE 18.4 km/h 30.6 km/h 36.3% 0.0 mm
14:34 32 °C 15.2 °C 1018.3 hPa NE 18.4 km/h 30.6 km/h 36.3% 0.0 mm
14:39 32.2 °C 15.6 °C 1018.2 hPa NE 17.8 km/h 37.8 km/h 36.9% 0.0 mm
14:44 31.9 °C 15.4 °C 1018.2 hPa NE 16.4 km/h 37 km/h 36.9% 0.0 mm
14:49 32.1 °C 15.2 °C 1018.2 hPa NE 16.9 km/h 31.5 km/h 36.2% 0.0 mm
14:54 32.1 °C 15.2 °C 1018.0 hPa NE 18.4 km/h 35.9 km/h 36% 0.0 mm
14:59 32 °C 15.1 °C 1018.0 hPa NE 19.2 km/h 35.4 km/h 36.1% 0.0 mm
15:04 32.2 °C 15.3 °C 1018.0 hPa NE 20.9 km/h 35.2 km/h 36.3% 0.0 mm
15:09 32.2 °C 15.5 °C 1017.8 hPa NE 21.1 km/h 35.4 km/h 36.5% 0.0 mm
15:14 32.5 °C 15.5 °C 1017.8 hPa NE 21.7 km/h 33.8 km/h 36% 0.0 mm
15:19 32.4 °C 15.9 °C 1017.8 hPa NE 20.5 km/h 32.2 km/h 37.1% 0.0 mm
15:24 32.4 °C 15.9 °C 1017.6 hPa NE 17.2 km/h 30.6 km/h 37.2% 0.0 mm
15:29 32.4 °C 15.8 °C 1017.6 hPa ENE 16.9 km/h 35.2 km/h 37% 0.0 mm
15:34 32.5 °C 15.9 °C 1017.6 hPa ENE 16.1 km/h 35.4 km/h 37% 0.0 mm
15:39 32.5 °C 15.9 °C 1017.5 hPa NE 16.1 km/h 33.8 km/h 37% 0.0 mm
15:44 32.6 °C 16 °C 1017.5 hPa ENE 16.1 km/h 29.6 km/h 37.1% 0.0 mm
15:49 32.6 °C 16 °C 1017.5 hPa ENE 16.4 km/h 34.3 km/h 37% 0.0 mm
15:54 32.5 °C 15.9 °C 1017.4 hPa ENE 17.2 km/h 33.8 km/h 37.1% 0.0 mm
15:59 32.3 °C 16.2 °C 1017.4 hPa ENE 17.5 km/h 33.8 km/h 37.9% 0.0 mm
16:04 32.6 °C 16.2 °C 1017.4 hPa NE 18 km/h 33.3 km/h 37.5% 0.0 mm
16:09 32.6 °C 16.2 °C 1017.4 hPa NE 17.6 km/h 33.8 km/h 37.5% 0.0 mm
16:14 32.6 °C 16 °C 1017.4 hPa ENE 16.4 km/h 33.8 km/h 37.1% 0.0 mm
16:19 32.3 °C 16.1 °C 1017.4 hPa ENE 16.2 km/h 33.3 km/h 37.6% 0.0 mm
16:24 32.3 °C 15.7 °C 1017.4 hPa NE 15.6 km/h 33.8 km/h 36.6% 0.0 mm
16:29 32.5 °C 15.5 °C 1017.4 hPa NE 15.8 km/h 30.6 km/h 35.9% 0.0 mm
16:34 32.6 °C 15.4 °C 1017.4 hPa NE 16.4 km/h 27.8 km/h 35.5% 0.0 mm
16:39 32.7 °C 14.3 °C 1017.3 hPa NE 16.6 km/h 29.6 km/h 33.1% 0.0 mm
16:44 32.7 °C 15.4 °C 1017.3 hPa ENE 17.2 km/h 30.6 km/h 35.5% 0.0 mm
16:49 32.6 °C 15 °C 1017.3 hPa NE 17.2 km/h 30.6 km/h 34.6% 0.0 mm
16:54 32.6 °C 13.5 °C 1017.3 hPa NE 17.2 km/h 35.2 km/h 31.4% 0.0 mm
16:59 32.6 °C 13.8 °C 1017.3 hPa NE 18.2 km/h 35.4 km/h 32% 0.0 mm
17:04 32.5 °C 14.4 °C 1017.3 hPa NE 20.1 km/h 35.4 km/h 33.7% 0.0 mm
17:09 32.4 °C 14.3 °C 1017.2 hPa NE 19.8 km/h 33.8 km/h 33.5% 0.0 mm
17:14 32.7 °C 13.6 °C 1017.2 hPa NE 19 km/h 38.9 km/h 31.6% 0.0 mm
17:19 32.6 °C 13.5 °C 1017.2 hPa NE 19.2 km/h 38.6 km/h 31.4% 0.0 mm
17:24 32.4 °C 13.3 °C 1017.0 hPa NE 19.8 km/h 37 km/h 31.4% 0.0 mm
17:29 32.4 °C 14.6 °C 1017.0 hPa NE 20.3 km/h 37 km/h 34% 0.0 mm
17:34 32.5 °C 14 °C 1017.0 hPa NE 21.7 km/h 33.8 km/h 32.8% 0.0 mm
17:39 32.7 °C 14.6 °C 1016.9 hPa NE 20.4 km/h 29 km/h 33.6% 0.0 mm
17:44 32.6 °C 15 °C 1016.9 hPa NE 17.2 km/h 30.6 km/h 34.6% 0.0 mm
17:49 32.4 °C 16.2 °C 1016.9 hPa ENE 17.4 km/h 31.7 km/h 37.8% 0.0 mm
17:54 32.2 °C 15.3 °C 1016.8 hPa NE 18 km/h 39.6 km/h 36.2% 0.0 mm
17:59 32.1 °C 14.6 °C 1016.8 hPa NE 18.7 km/h 40.2 km/h 34.6% 0.0 mm
18:04 32.2 °C 15.3 °C 1016.8 hPa NE 20.1 km/h 35.9 km/h 36.3% 0.0 mm
18:09 32 °C 15.3 °C 1016.6 hPa NE 20.6 km/h 35.4 km/h 36.4% 0.0 mm
18:14 31.9 °C 14.9 °C 1016.6 hPa NE 21.7 km/h 37 km/h 35.9% 0.0 mm
18:19 31.9 °C 14.9 °C 1016.6 hPa NE 21.3 km/h 37.8 km/h 35.8% 0.0 mm
18:24 32 °C 14.8 °C 1016.5 hPa NE 20.1 km/h 37 km/h 35.3% 0.0 mm
18:29 31.9 °C 14.4 °C 1016.5 hPa NE 20.4 km/h 35.9 km/h 34.7% 0.0 mm
18:34 31.8 °C 13.9 °C 1016.5 hPa NE 20.9 km/h 40.7 km/h 33.7% 0.0 mm
18:39 31.8 °C 13.8 °C 1016.5 hPa NE 21.2 km/h 40.2 km/h 33.5% 0.0 mm
18:44 31.8 °C 13.7 °C 1016.5 hPa NE 21.7 km/h 39.6 km/h 33.3% 0.0 mm
18:49 31.8 °C 14 °C 1016.5 hPa NE 22 km/h 40.2 km/h 34% 0.0 mm
18:54 31.7 °C 14 °C 1016.5 hPa NE 22.5 km/h 40.7 km/h 34.3% 0.0 mm
18:59 31.6 °C 14.6 °C 1016.5 hPa NE 22.4 km/h 40.2 km/h 35.8% 0.0 mm
19:04 31.6 °C 14.1 °C 1016.5 hPa NE 22.1 km/h 35.2 km/h 34.6% 0.0 mm
19:09 31.7 °C 14.2 °C 1016.3 hPa NE 21.6 km/h 35.4 km/h 34.7% 0.0 mm
19:14 31.6 °C 14.6 °C 1016.3 hPa NE 19.8 km/h 35.2 km/h 35.7% 0.0 mm
19:19 31.5 °C 14.7 °C 1016.4 hPa NE 20.1 km/h 35.4 km/h 36.1% 0.0 mm
19:24 31.3 °C 14.6 °C 1016.4 hPa NE 20.9 km/h 38.9 km/h 36.3% 0.0 mm
19:29 31.3 °C 14.8 °C 1016.4 hPa NE 21.4 km/h 38.6 km/h 37% 0.0 mm
19:34 31.2 °C 14.8 °C 1016.4 hPa NE 22.5 km/h 33.8 km/h 37% 0.0 mm
19:39 31.2 °C 14.7 °C 1016.4 hPa NE 21.8 km/h 33.3 km/h 37% 0.0 mm
19:44 31.1 °C 15 °C 1016.4 hPa NE 20.1 km/h 33.8 km/h 37.8% 0.0 mm
19:49 31 °C 16.1 °C 1016.5 hPa NE 19.4 km/h 30.6 km/h 40.8% 0.0 mm
19:54 30.9 °C 16.2 °C 1016.5 hPa ENE 17.2 km/h 29 km/h 41.3% 0.0 mm
19:59 30.8 °C 16.4 °C 1016.5 hPa ENE 16.2 km/h 28.2 km/h 42% 0.0 mm
20:04 30.7 °C 16.3 °C 1016.5 hPa ENE 14 km/h 27.4 km/h 42% 0.0 mm
20:09 30.5 °C 16.3 °C 1016.5 hPa NE 13.4 km/h 23.3 km/h 42.3% 0.0 mm
20:14 30.4 °C 16.4 °C 1016.5 hPa ENE 11.9 km/h 24.1 km/h 43% 0.0 mm
20:19 30.3 °C 16.5 °C 1016.6 hPa NE 11.9 km/h 25.6 km/h 43.4% 0.0 mm
20:24 30.1 °C 16.7 °C 1016.6 hPa NE 11.9 km/h 25.9 km/h 44.5% 0.0 mm
20:29 30 °C 16.8 °C 1016.6 hPa ENE 12.2 km/h 24.1 km/h 45% 0.0 mm
20:34 29.9 °C 16.8 °C 1016.7 hPa NE 13 km/h 22.2 km/h 45.5% 0.0 mm
20:39 29.8 °C 16.9 °C 1016.7 hPa ENE 12.7 km/h 22.5 km/h 46% 0.0 mm
20:44 29.7 °C 17 °C 1016.7 hPa ENE 11.9 km/h 22.5 km/h 46.6% 0.0 mm
20:49 29.6 °C 17.1 °C 1016.9 hPa ENE 11.3 km/h 22.5 km/h 47% 0.0 mm
20:54 29.6 °C 17.2 °C 1016.9 hPa NE 9.5 km/h 16.1 km/h 47.3% 0.0 mm
20:59 29.4 °C 17.2 °C 1016.9 hPa ENE 9.2 km/h 16.1 km/h 47.9% 0.0 mm
21:04 29.3 °C 17.5 °C 1017.0 hPa ENE 8.7 km/h 15.6 km/h 48.9% 0.0 mm
21:09 29.2 °C 17.4 °C 1017.0 hPa NE 8.4 km/h 17.2 km/h 49% 0.0 mm
21:14 29 °C 17.4 °C 1017.0 hPa ENE 7.6 km/h 19.8 km/h 49.6% 0.0 mm
21:19 28.8 °C 17.4 °C 1017.1 hPa NE 7.9 km/h 20.9 km/h 50% 0.0 mm
21:24 28.8 °C 17.6 °C 1017.1 hPa ENE 8.7 km/h 19 km/h 50.9% 0.0 mm
21:29 28.6 °C 17.7 °C 1017.1 hPa ENE 8.7 km/h 19.3 km/h 51.6% 0.0 mm
21:34 28.5 °C 17.7 °C 1017.1 hPa ENE 8.7 km/h 14.8 km/h 52% 0.0 mm
21:39 28.3 °C 17.7 °C 1017.1 hPa NE 8.6 km/h 14.5 km/h 52.8% 0.0 mm
21:44 28.3 °C 17.8 °C 1017.1 hPa NE 8.4 km/h 13.7 km/h 53.1% 0.0 mm
21:49 28.2 °C 18 °C 1017.2 hPa ENE 8 km/h 14.5 km/h 54% 0.0 mm
21:54 28 °C 17.9 °C 1017.2 hPa NE 6.9 km/h 18 km/h 54.3% 0.0 mm
21:59 27.8 °C 18 °C 1017.2 hPa NE 7.9 km/h 19.3 km/h 55% 0.0 mm
22:04 27.8 °C 18.1 °C 1017.3 hPa NE 10.3 km/h 19.3 km/h 55.5% 0.0 mm
22:09 27.7 °C 18.1 °C 1017.3 hPa NE 10.8 km/h 19.3 km/h 56% 0.0 mm
22:14 27.6 °C 18.4 °C 1017.3 hPa NE 11.9 km/h 20.4 km/h 57.2% 0.0 mm
22:19 27.4 °C 18.5 °C 1017.3 hPa NE 12.2 km/h 20.9 km/h 58.1% 0.0 mm
22:24 27.3 °C 18.7 °C 1017.3 hPa NE 13 km/h 20.9 km/h 59.2% 0.0 mm
22:29 27.2 °C 18.8 °C 1017.3 hPa NE 12.5 km/h 19.3 km/h 60% 0.0 mm
22:34 27.2 °C 18.8 °C 1017.3 hPa NE 11.1 km/h 17.7 km/h 60.3% 0.0 mm
22:39 27.1 °C 18.9 °C 1017.3 hPa NE 10.8 km/h 16.1 km/h 61% 0.0 mm
22:44 26.9 °C 18.7 °C 1017.3 hPa NE 10 km/h 16.7 km/h 61% 0.0 mm
22:49 26.9 °C 19 °C 1017.5 hPa NE 9.6 km/h 16.1 km/h 61.9% 0.0 mm
22:54 26.9 °C 19 °C 1017.5 hPa NE 8.7 km/h 11.9 km/h 62% 0.0 mm
22:59 26.8 °C 18.9 °C 1017.5 hPa NE 8.1 km/h 13 km/h 62% 0.0 mm
23:04 26.8 °C 18.9 °C 1017.5 hPa NE 6.9 km/h 13 km/h 62% 0.0 mm
23:09 26.7 °C 19.1 °C 1017.5 hPa NE 7.3 km/h 13 km/h 62.9% 0.0 mm
23:14 26.7 °C 19.1 °C 1017.5 hPa NE 8.4 km/h 14.8 km/h 63% 0.0 mm
23:19 26.7 °C 19.1 °C 1017.6 hPa NNE 7.6 km/h 14.5 km/h 63% 0.0 mm
23:24 26.6 °C 19 °C 1017.6 hPa NO 5.8 km/h 8 km/h 63% 0.0 mm
23:29 26.6 °C 19 °C 1017.6 hPa NO 5 km/h 6.4 km/h 63.1% 0.0 mm
23:34 26.5 °C 19.1 °C 1017.6 hPa NO 3.2 km/h 6.4 km/h 64% 0.0 mm
23:39 26.4 °C 19.1 °C 1017.6 hPa NNO 2.4 km/h 5.8 km/h 64% 0.0 mm
23:44 26.4 °C 19.1 °C 1017.6 hPa Calm   8.4 km/h 64% 0.0 mm
23:49 26.4 °C 19.1 °C 1017.6 hPa NNO 1.1 km/h 8 km/h 64% 0.0 mm
23:54 26.4 °C 19.1 °C 1017.6 hPa NNE 3.9 km/h 8 km/h 64% 0.0 mm
23:59 26.4 °C 19.1 °C 1017.6 hPa NE 3.9 km/h 10 km/h 64% 0.0 mm
Murcia-Puente Tocinos, España
Compliments of Weather Underground - 3 mb

La estación de MeteoMurcia.com, publica sus datos en los siguientes proyectos:

Weather Underground PWS IMURCIAP2 Meteoclimatic www.awekas.at

W3Counter
Web Analytics